Time;durP1;ratioP1;P1;durP2;ratioP2;P2;SDS_P1;SDS_P2;PMS_P1;PMS_P2;Temp;Humidity;BMP_temperature;BMP_pressure;BME280_temperature;BME280_humidity;BME280_pressure;Samples;Min_cycle;Max_cycle;Signal;HPM_P1;HPM_P2
2022/06/20 00:04:28;;;;;;;4.57;2.87;;;;;;;24.10;42.35;100034.78;20827969;27;101453;-80
2022/06/20 00:14:29;;;;;;;4.20;2.65;;;;;;;23.97;42.90;100043.06;20834092;27;97816;-80
2022/06/20 00:24:30;;;;;;;6.00;2.88;;;;;;;23.88;42.89;100028.03;20847572;27;103196;-81
2022/06/20 00:34:31;;;;;;;6.05;2.70;;;;;;;23.69;43.12;100010.44;20845060;27;96947;-81
2022/06/20 00:44:36;;;;;;;6.55;3.10;;;;;;;23.69;43.13;100022.81;20846600;27;97167;-80
2022/06/20 00:54:44;;;;;;;4.60;2.60;;;;;;;23.64;43.30;100018.81;20852118;27;96928;-81
2022/06/20 01:04:52;;;;;;;3.10;2.60;;;;;;;23.51;43.51;99997.16;20838315;27;101364;-81
2022/06/20 01:14:52;;;;;;;5.97;2.70;;;;;;;23.44;43.46;99993.41;20840672;27;97005;-81
2022/06/20 01:25:10;;;;;;;2.65;2.38;;;;;;;23.32;43.31;99971.59;20841804;27;101201;-80
2022/06/20 01:37:23;;;;;;;3.40;2.35;;;;;;;23.23;43.72;99965.38;20840512;27;96952;-80
2022/06/20 01:55:55;;;;;;;7.05;2.53;;;;;;;23.05;44.12;99962.59;20836776;27;98836;-80
2022/06/20 02:05:56;;;;;;;;;;;;;;;22.97;44.30;99962.47;20848757;27;97023;-81
2022/06/20 02:16:03;;;;;;;4.95;2.40;;;;;;;22.93;44.19;99939.97;20837324;27;98544;-81
2022/06/20 02:26:07;;;;;;;5.88;3.20;;;;;;;22.82;44.51;99930.38;20847470;27;98711;-80
2022/06/20 02:36:07;;;;;;;5.10;3.13;;;;;;;22.76;44.62;99930.97;20853313;27;98218;-81
2022/06/20 02:46:12;;;;;;;8.20;3.13;;;;;;;22.66;44.81;99918.59;20849914;27;98686;-81
2022/06/20 02:56:18;;;;;;;5.70;2.83;;;;;;;22.63;45.06;99934.72;20862565;27;98463;-80
2022/06/20 03:06:33;;;;;;;5.65;3.00;;;;;;;22.60;45.20;99929.69;20866179;27;98814;-80
2022/06/20 03:16:34;;;;;;;4.22;2.67;;;;;;;22.60;45.15;99924.44;20861461;27;96979;-81
2022/06/20 03:26:35;;;;;;;3.40;2.70;;;;;;;22.57;45.22;99915.94;20853244;27;97481;-80
2022/06/20 03:36:35;;;;;;;4.82;2.60;;;;;;;22.57;45.34;99910.69;20855347;27;98993;-80
2022/06/20 03:46:44;;;;;;;7.45;3.10;;;;;;;22.51;46.36;99917.38;20850848;27;98503;-80
2022/06/20 03:57:00;;;;;;;8.43;3.13;;;;;;;22.45;46.51;99913.47;20839571;27;97367;-81
2022/06/20 04:07:14;;;;;;;5.22;3.00;;;;;;;22.51;46.39;99904.16;20842264;27;101754;-80
2022/06/20 04:28:15;;;;;;;4.55;2.72;;;;;;;23.15;44.73;99899.19;20839413;27;98898;-78
2022/06/20 04:38:30;;;;;;;4.85;2.90;;;;;;;23.33;44.44;99912.53;20829025;27;98230;-78
2022/06/20 04:48:30;;;;;;;3.78;2.50;;;;;;;23.44;44.49;99912.31;20840743;27;99489;-82
2022/06/20 04:58:39;;;;;;;2.72;2.40;;;;;;;23.57;43.88;99901.44;20838529;27;97400;-77
2022/06/20 05:08:45;;;;;;;3.70;2.20;;;;;;;23.70;43.45;99916.94;20838632;27;101634;-83
2022/06/20 05:18:52;;;;;;;7.22;3.22;;;;;;;23.76;43.53;99919.00;20861729;27;100501;-80
2022/06/20 05:28:57;;;;;;;7.40;3.13;;;;;;;23.58;44.27;99918.97;20841194;27;98475;-81
2022/06/20 05:39:16;;;;;;;10.20;3.00;;;;;;;23.43;44.49;99923.88;20841292;27;101623;-84
2022/06/20 05:49:28;;;;;;;8.88;4.03;;;;;;;23.33;44.24;99926.53;20836938;27;99905;-84
2022/06/20 05:59:34;;;;;;;7.05;3.35;;;;;;;23.39;43.91;99927.78;20865366;27;98317;-79
2022/06/20 06:09:44;;;;;;;7.40;3.55;;;;;;;23.47;44.24;99935.84;20862743;27;98591;-78
2022/06/20 06:19:59;;;;;;;10.35;3.50;;;;;;;23.53;44.29;99923.00;20868466;27;100641;-79
2022/06/20 06:30:04;;;;;;;7.53;3.63;;;;;;;23.68;43.67;99913.63;20868402;27;100830;-79
2022/06/20 06:40:18;;;;;;;9.45;3.90;;;;;;;23.77;44.07;99914.56;20858286;27;98228;-79
2022/06/20 06:50:47;;;;;;;5.05;3.58;;;;;;;23.93;43.61;99919.22;20852160;27;98136;-78
2022/06/20 07:00:55;;;;;;;6.10;4.30;;;;;;;24.04;42.68;99915.53;20841452;27;98120;-78
2022/06/20 07:11:04;;;;;;;8.63;3.60;;;;;;;24.14;42.53;99892.47;20836022;27;98915;-78
2022/06/20 07:21:04;;;;;;;9.85;3.63;;;;;;;24.29;42.51;99868.97;20856011;27;96994;-80
2022/06/20 07:31:11;;;;;;;11.07;3.90;;;;;;;24.44;43.25;99856.88;20853187;27;100095;-77
2022/06/20 07:41:21;;;;;;;7.78;3.60;;;;;;;24.54;44.54;99840.09;20845738;27;99059;-76
2022/06/20 07:51:33;;;;;;;3.67;3.30;;;;;;;24.61;43.77;99839.31;20836719;27;96877;-77
2022/06/20 08:02:06;;;;;;;10.43;3.60;;;;;;;24.77;42.20;99843.09;20829836;27;97736;-77
2022/06/20 08:12:24;;;;;;;7.15;3.60;;;;;;;24.83;42.55;99823.06;20815936;27;99867;-75
2022/06/20 08:22:32;;;;;;;6.57;3.97;;;;;;;24.90;42.32;99822.31;20829141;27;97211;-75
2022/06/20 08:32:48;;;;;;;8.48;4.47;;;;;;;24.99;42.76;99815.22;20827024;27;97746;-75
2022/06/20 08:43:28;;;;;;;4.95;4.13;;;;;;;25.30;43.17;99821.81;20831772;27;97931;-75
2022/06/20 08:53:44;;;;;;;7.47;4.40;;;;;;;25.34;43.15;99813.41;20846991;27;98396;-75
2022/06/20 09:04:02;;;;;;;8.48;4.75;;;;;;;25.41;43.12;99797.69;20826399;27;100435;-75
2022/06/20 09:14:14;;;;;;;6.07;4.45;;;;;;;25.56;43.21;99785.50;20842105;27;97879;-75
2022/06/20 09:24:37;;;;;;;5.50;4.90;;;;;;;25.56;42.92;99771.38;20840356;27;101305;-74
2022/06/20 09:34:54;;;;;;;9.00;4.82;;;;;;;25.69;42.20;99752.38;20847713;27;97650;-74
2022/06/20 09:45:22;;;;;;;5.82;4.28;;;;;;;25.76;41.63;99732.16;20858693;27;97329;-75
2022/06/20 09:55:29;;;;;;;7.20;4.57;;;;;;;25.81;41.65;99727.19;20844380;27;101705;-75
2022/06/20 10:05:49;;;;;;;9.30;4.70;;;;;;;25.91;40.93;99708.44;20848862;27;98496;-75
2022/06/20 10:16:11;;;;;;;5.40;4.78;;;;;;;26.16;41.32;99697.84;20835231;27;99924;-76
2022/06/20 10:26:40;;;;;;;9.07;4.93;;;;;;;26.19;40.57;99686.88;20870882;27;97862;-76
2022/06/20 10:37:00;;;;;;;5.63;3.90;;;;;;;26.44;40.61;99686.81;20834505;27;97282;-74
2022/06/20 10:47:06;;;;;;;8.50;3.88;;;;;;;26.45;39.98;99694.63;20852023;27;97186;-74
2022/06/20 10:57:13;;;;;;;14.63;4.72;;;;;;;26.65;40.00;99675.66;20844918;27;98021;-75
2022/06/20 11:07:44;;;;;;;7.93;4.38;;;;;;;26.69;40.01;99661.81;20863456;27;101576;-75
2022/06/20 11:17:56;;;;;;;5.88;3.50;;;;;;;26.67;39.93;99650.56;20880802;27;97671;-73
2022/06/20 11:28:29;;;;;;;9.27;4.28;;;;;;;26.78;39.70;99632.63;20888686;27;96986;-73
2022/06/20 11:38:53;;;;;;;7.32;4.15;;;;;;;26.98;39.07;99638.31;20863813;27;100326;-74
2022/06/20 11:49:12;;;;;;;13.63;3.97;;;;;;;27.14;39.04;99648.03;20866810;27;97132;-74
2022/06/20 11:59:58;;;;;;;6.00;4.07;;;;;;;27.22;38.38;99645.31;20869900;27;98845;-74
2022/06/20 12:10:13;;;;;;;5.60;4.30;;;;;;;27.19;38.11;99632.38;20855828;27;96938;-71
2022/06/20 12:30:51;;;;;;;8.57;4.28;;;;;;;27.50;37.79;99614.72;20835429;27;97776;-72
2022/06/20 12:40:59;;;;;;;5.80;3.63;;;;;;;27.66;36.17;99603.94;20817548;27;97715;-72
2022/06/20 12:51:27;;;;;;;6.00;3.65;;;;;;;27.55;37.24;99599.88;20813054;27;99897;-73
2022/06/20 13:01:48;;;;;;;6.38;3.60;;;;;;;27.49;37.69;99582.00;20859729;27;97858;-75
2022/06/20 13:12:07;;;;;;;5.90;3.33;;;;;;;27.50;37.83;99583.63;20856468;27;98504;-76
2022/06/20 13:22:36;;;;;;;7.68;3.50;;;;;;;27.50;38.10;99566.84;20836953;27;100487;-75
2022/06/20 13:33:07;;;;;;;6.53;3.30;;;;;;;27.51;38.56;99573.84;20843697;27;97141;-74
2022/06/20 13:43:45;;;;;;;3.72;3.10;;;;;;;27.50;38.59;99550.91;20849106;27;97459;-75
2022/06/20 13:54:11;;;;;;;4.72;3.10;;;;;;;27.46;38.87;99545.13;20838460;27;96802;-75
2022/06/20 14:04:14;;;;;;;4.03;3.03;;;;;;;27.45;39.10;99538.16;20841333;27;98452;-75
2022/06/20 14:14:32;;;;;;;3.30;2.90;;;;;;;27.43;39.34;99519.72;20827692;27;99138;-75
2022/06/20 14:24:37;;;;;;;4.35;3.17;;;;;;;27.52;39.26;99517.00;20817107;27;101148;-74
2022/06/20 14:35:20;;;;;;;3.90;3.10;;;;;;;27.48;39.09;99514.69;20852995;27;99514;-74
2022/06/20 14:45:16;;;;;;;3.55;2.70;;;;;;;27.54;39.41;99494.53;20848313;27;97540;-74
2022/06/20 14:55:38;;;;;;;4.32;2.70;;;;;;;27.45;39.23;99484.97;20862744;27;99596;-75
2022/06/20 15:05:45;;;;;;;4.00;2.70;;;;;;;27.30;38.94;99472.47;20830994;27;100975;-74
2022/06/20 15:15:50;;;;;;;3.58;2.60;;;;;;;27.19;38.65;99475.56;20840637;27;99569;-74
2022/06/20 15:25:56;;;;;;;4.30;2.50;;;;;;;27.15;38.98;99476.94;20823020;27;98268;-77
2022/06/20 15:36:05;;;;;;;5.05;2.80;;;;;;;27.07;39.70;99477.00;20826016;27;99759;-76
2022/06/20 15:46:13;;;;;;;5.47;2.97;;;;;;;27.02;40.91;99460.78;20821366;27;101562;-77
2022/06/20 15:56:32;;;;;;;4.88;2.55;;;;;;;27.06;41.65;99470.88;20809959;27;100101;-77
2022/06/20 16:06:56;;;;;;;5.65;2.75;;;;;;;27.05;41.13;99458.59;20827002;27;97896;-76
2022/06/20 16:16:58;;;;;;;5.20;2.63;;;;;;;27.04;40.75;99451.63;20821186;27;97924;-77
2022/06/20 16:26:59;;;;;;;3.80;2.90;;;;;;;27.05;40.16;99450.63;20824824;27;98401;-77
2022/06/20 16:37:09;;;;;;;4.93;2.70;;;;;;;27.11;39.61;99444.59;20827659;27;99945;-77
2022/06/20 16:47:12;;;;;;;32.17;19.52;;;;;;;27.11;40.31;99451.72;20808292;27;97742;-77
2022/06/20 16:57:14;;;;;;;43.17;24.90;;;;;;;27.14;39.80;99449.53;20810450;27;97791;-76
2022/06/20 17:07:29;;;;;;;386.38;99.53;;;;;;;27.35;41.24;99440.03;20819841;27;99011;-77
2022/06/20 17:18:01;;;;;;;241.82;68.15;;;;;;;27.52;41.96;99429.25;20811559;27;97950;-77
2022/06/20 17:28:02;;;;;;;189.63;53.92;;;;;;;27.61;44.37;99431.63;20799616;27;100172;-74
2022/06/20 17:38:24;;;;;;;149.40;47.42;;;;;;;27.58;45.35;99426.66;20821920;27;97442;-77
2022/06/20 17:48:51;;;;;;;115.63;39.00;;;;;;;27.57;43.68;99434.84;20826375;27;98584;-80
2022/06/20 17:59:21;;;;;;;108.15;36.67;;;;;;;27.50;43.00;99439.22;20844500;27;96908;-82
2022/06/20 18:09:45;;;;;;;88.15;33.63;;;;;;;27.40;42.55;99423.53;20858276;27;97058;-83
2022/06/20 18:19:52;;;;;;;91.93;32.65;;;;;;;27.39;42.17;99425.38;20864127;27;101254;-80
2022/06/20 18:29:52;;;;;;;72.45;29.42;;;;;;;27.34;41.58;99430.38;20860856;27;99018;-81
2022/06/20 18:40:10;;;;;;;65.45;27.67;;;;;;;27.36;41.13;99441.69;20844878;27;97362;-85
2022/06/20 18:50:13;;;;;;;62.88;25.10;;;;;;;27.28;40.50;99444.41;20864878;27;100508;-82
2022/06/20 19:00:36;;;;;;;66.55;25.45;;;;;;;27.27;40.83;99456.88;20833782;27;99215;-80
2022/06/20 19:10:51;;;;;;;38.90;17.52;;;;;;;27.40;40.58;99466.06;20820273;27;98542;-75
2022/06/20 19:21:30;;;;;;;24.15;11.43;;;;;;;27.50;40.56;99466.63;20812475;27;102081;-75
2022/06/20 19:31:43;;;;;;;13.65;5.55;;;;;;;27.55;39.67;99474.06;20821639;27;96936;-76
2022/06/20 19:41:46;;;;;;;8.48;4.53;;;;;;;27.58;39.64;99457.75;20830409;27;97039;-75
2022/06/20 19:51:46;;;;;;;7.47;3.95;;;;;;;27.61;39.87;99462.69;20822891;27;97577;-76
2022/06/20 20:01:47;;;;;;;10.52;3.90;;;;;;;27.62;39.76;99464.34;20799220;27;98626;-79
2022/06/20 20:11:48;;;;;;;10.63;4.03;;;;;;;27.51;40.43;99465.63;20832846;27;97640;-82
2022/06/20 20:22:00;;;;;;;7.40;4.47;;;;;;;27.42;40.84;99477.38;20863984;27;97667;-81
2022/06/20 20:32:12;;;;;;;6.35;3.97;;;;;;;27.32;41.88;99481.09;20869013;27;101091;-80
2022/06/20 20:42:31;;;;;;;8.45;4.55;;;;;;;27.27;42.45;99486.13;20848429;27;98974;-81
2022/06/20 20:52:46;;;;;;;6.43;4.38;;;;;;;27.22;42.54;99480.53;20851110;27;99072;-82
2022/06/20 21:03:05;;;;;;;5.90;4.68;;;;;;;27.15;42.93;99472.44;20889138;27;99573;-83
2022/06/20 21:13:12;;;;;;;9.77;5.00;;;;;;;27.07;43.43;99477.00;20889051;27;97774;-80
2022/06/20 21:23:13;;;;;;;10.90;5.63;;;;;;;27.05;44.15;99485.16;20892615;27;99303;-81
2022/06/20 21:33:16;;;;;;;10.63;5.38;;;;;;;27.00;44.13;99476.88;20863810;27;99310;-80
2022/06/20 21:43:20;;;;;;;10.45;4.95;;;;;;;26.99;45.11;99507.16;20861021;27;97850;-81
2022/06/20 21:53:43;;;;;;;9.90;4.95;;;;;;;26.95;45.07;99535.06;20846655;27;97878;-82
2022/06/20 22:03:44;;;;;;;6.50;4.85;;;;;;;26.95;45.06;99541.22;20849869;27;98235;-82
2022/06/20 22:13:58;;;;;;;14.30;4.97;;;;;;;26.90;46.86;99543.56;20839529;27;97849;-79
2022/06/20 22:24:16;;;;;;;16.00;4.43;;;;;;;26.79;46.41;99512.09;20838090;27;98938;-79
2022/06/20 22:34:20;;;;;;;14.77;5.10;;;;;;;26.81;46.32;99480.88;20825256;27;101858;-79
2022/06/20 22:44:21;;;;;;;9.02;4.20;;;;;;;26.81;45.21;99478.22;20829937;27;97829;-79
2022/06/20 22:54:27;;;;;;;7.50;4.03;;;;;;;26.82;44.98;99511.75;20834608;27;96994;-80
2022/06/20 23:04:42;;;;;;;7.45;4.20;;;;;;;26.79;44.69;99608.56;20859411;27;101299;-79
2022/06/20 23:14:51;;;;;;;9.50;4.00;;;;;;;26.80;44.45;99599.56;20852611;27;98198;-80
2022/06/20 23:24:55;;;;;;;7.18;3.80;;;;;;;26.78;44.44;99575.03;20866753;27;97477;-80
2022/06/20 23:35:00;;;;;;;6.45;4.07;;;;;;;26.77;44.39;99581.34;20857842;27;97658;-79
2022/06/20 23:45:02;;;;;;;5.65;3.95;;;;;;;26.76;44.45;99589.50;20861801;27;101423;-80
2022/06/20 23:55:04;;;;;;;4.80;3.70;;;;;;;26.74;44.43;99572.84;20857758;27;97506;-79
